Flight Track Log - Related Links

Times and Time Zones

All times are in EDT time to prevent confusion due to time zone crossing. See the SWA1462 flight status page for this flight to view local times or setup timezone preferences in your user account.

Time Position Orientation Groundspeed Altitude Reporting Facility
EDT Latitude Longitude Course Direction KTS MPH feet Rate Location/Type
Sun 06:32:50 PM 42.9500 -87.8500 90° East 156 180 2,800  Level KMKE
Sun 06:33:24 PM 42.9206 -87.8639 199° South 268 308 4,700 3,778 Climbing Chicago Center
Sun 06:33:44 PM 42.9167 -87.8833 255° West 210 242 6,200 3,726 Climbing KMKE
Sun 06:35:28 PM 42.8581 -88.0028 236° Southwest 249 287 12,400 3,542 Climbing Chicago Center
Sun 06:36:30 PM 42.7806 -88.0017 179° South 275 316 16,000 3,120 Climbing Chicago Center
Sun 06:37:33 PM 42.6942 -88.0039 181° South 308 354 18,900 3,048 Climbing Chicago Center
Sun 06:38:34 PM 42.5750 -88.0067 181° South 363 418 22,300 2,878 Climbing Chicago Center
Sun 06:39:36 PM 42.4669 -88.0103 181° South 384 442 24,800 2,323 Climbing Chicago Center
Sun 06:40:38 PM 42.3544 -88.0117 181° South 401 461 27,100 2,274 Climbing Chicago Center
Sun 06:41:40 PM 42.2278 -88.0136 181° South 418 481 29,500 1,887 Climbing Chicago Center
Sun 06:42:42 PM 42.1086 -88.0167 181° South 427 491 31,000 1,258 Climbing Chicago Center
Sun 06:43:44 PM 41.9892 -88.0186 181° South 432 497 32,100 1,548 Climbing Chicago Center
Sun 06:44:46 PM 41.8686 -88.0261 183° South 435 501 34,200 1,887 Climbing Chicago Center
Sun 06:45:48 PM 41.7508 -88.0394 185° South 429 494 36,000 871 Climbing Chicago Center
Sun 06:46:50 PM 41.6361 -88.0517 185° South 417 480 36,000  Level Chicago Center
Sun 06:47:53 PM 41.5231 -88.0636 185° South 412 474 36,000 339 Level Chicago Center
Sun 06:48:54 PM 41.4017 -88.0767 185° South 414 476 36,700 1,512 Climbing Chicago Center
Sun 06:49:56 PM 41.2636 -88.0917 185° South 407 468 39,100 1,597 Climbing Chicago Center
Sun 06:50:58 PM 41.1564 -88.1033 185° South 394 453 40,000 435 Climbing Chicago Center
Sun 06:52:00 PM 41.0483 -88.1144 184° South 391 450 40,000  Level Chicago Center
Sun 06:53:02 PM 40.9394 -88.1258 185° South 393 452 40,000  Level Chicago Center
Sun 06:54:04 PM 40.8300 -88.1375 185° South 395 455 40,000  Level Chicago Center
Sun 06:55:06 PM 40.7200 -88.1489 184° South 396 456 40,000  Level Chicago Center
Sun 06:56:08 PM 40.5889 -88.1628 185° South 397 457 40,000  Level Chicago Center
Sun 06:57:10 PM 40.4861 -88.2094 199° South 391 450 40,000  Level Chicago Center
Sun 06:58:12 PM 40.3850 -88.2569 200° South 388 447 40,000  Level Chicago Center
Sun 06:59:14 PM 40.2839 -88.3050 200° South 387 445 40,000  Level Chicago Center
Sun 07:00:16 PM 40.1761 -88.3544 199° South 392 451 40,000  Level Chicago Center
Sun 07:01:12 PM 40.0739 -88.4028 200° South 391 450 40,000  Level Kansas City Center
Sun 07:02:16 PM 39.9708 -88.4503 199° South 390 449 40,000  Level Kansas City Center
Sun 07:03:17 PM 39.8656 -88.4986 199° South 395 455 40,000  Level Kansas City Center
Sun 07:04:17 PM 39.7619 -88.5483 200° South 396 456 40,000  Level Kansas City Center
Sun 07:05:19 PM 39.6569 -88.5969 200° South 398 458 40,000  Level Kansas City Center
Sun 07:06:22 PM 39.5536 -88.6447 200° South 395 455 40,000  Level Kansas City Center
Sun 07:07:23 PM 39.4489 -88.6933 200° South 397 457 40,000  Level Kansas City Center
Sun 07:08:24 PM 39.3444 -88.7422 200° South 389 448 40,000  Level Kansas City Center
Sun 07:09:28 PM 39.2189 -88.7994 199° South 395 455 40,000  Level Kansas City Center
Sun 07:10:29 PM 39.1156 -88.8472 200° South 395 455 40,000  Level Kansas City Center
Sun 07:11:30 PM 39.0103 -88.8944 199° South 397 457 40,000  Level Kansas City Center
Sun 07:12:34 PM 38.9067 -88.9406 199° South 396 456 40,000  Level Kansas City Center
Sun 07:13:34 PM 38.7894 -88.9936 199° South 401 461 40,000  Level Kansas City Center
Sun 07:14:36 PM 38.6764 -89.0439 199° South 399 459 40,000  Level Kansas City Center
Sun 07:15:40 PM 38.5711 -89.0914 199° South 400 460 40,000  Level Kansas City Center
Sun 07:16:41 PM 38.4658 -89.1389 199° South 401 461 40,000  Level Kansas City Center
Sun 07:17:42 PM 38.3475 -89.1772 194° South 408 470 40,000  Level Kansas City Center
Sun 07:18:45 PM 38.2350 -89.2058 191° South 410 472 40,000  Level Kansas City Center
Sun 07:19:46 PM 38.1225 -89.2356 192° South 410 472 40,000  Level Kansas City Center
Sun 07:20:47 PM 38.0017 -89.2653 191° South 410 472 40,000  Level Kansas City Center
Sun 07:21:48 PM 37.8886 -89.2933 191° South 412 474 40,000  Level Kansas City Center
Sun 07:22:52 PM 37.7778 -89.3181 190° South 408 470 40,000  Level Kansas City Center
Sun 07:23:53 PM 37.6647 -89.3456 191° South 411 473 40,000  Level Kansas City Center
Sun 07:24:54 PM 37.5508 -89.3739 191° South 414 476 40,000  Level Kansas City Center
Sun 07:25:57 PM 37.4364 -89.4025 191° South 417 480 40,000  Level Kansas City Center
Sun 07:27:00 PM 37.3211 -89.4314 191° South 420 483 40,000  Level Kansas City Center
Sun 07:28:01 PM 37.1833 -89.4656 191° South 421 484 40,000  Level Kansas City Center
Sun 07:28:57 PM 37.0872 -89.4961 194° South 428 493 40,000  Level Memphis Center
Sun 07:29:57 PM 36.9750 -89.5233 191° South 428 493 40,000  Level Memphis Center
Sun 07:30:57 PM 36.8583 -89.5506 191° South 428 493 40,000  Level Memphis Center
Sun 07:31:56 PM 36.7461 -89.5800 192° South 428 493 40,000  Level Memphis Center
Sun 07:32:57 PM 36.6317 -89.6072 191° South 428 493 40,000  Level Memphis Center
Sun 07:33:57 PM 36.5192 -89.6367 192° South 428 493 40,000  Level Memphis Center
Sun 07:34:57 PM 36.3922 -89.6661 191° South 428 493 40,000  Level Memphis Center
Sun 07:35:57 PM 36.2756 -89.6928 190° South 428 493 40,000  Level Memphis Center
Sun 07:36:57 PM 36.1631 -89.7169 190° South 428 493 40,000  Level Memphis Center
Sun 07:37:57 PM 36.0550 -89.7408 190° South 418 481 40,000  Level Memphis Center
Sun 07:38:57 PM 35.9444 -89.7672 191° South 413 475 40,000  Level Memphis Center
Sun 07:39:57 PM 35.8361 -89.7911 190° South 408 470 40,000  Level Memphis Center
Sun 07:40:57 PM 35.7236 -89.8200 192° South 408 470 40,000  Level Memphis Center
Sun 07:41:57 PM 35.6342 -89.8386 190° South 402 463 40,000  Level Memphis Center
Sun 07:42:56 PM 35.5111 -89.8672 191° South 396 456 40,000  Level Memphis Center
Sun 07:43:56 PM 35.4028 -89.8933 191° South 396 456 40,000  Level Memphis Center
Sun 07:44:57 PM 35.2922 -89.9194 191° South 402 463 40,000  Level Memphis Center
Sun 07:45:57 PM 35.1797 -89.9481 192° South 408 470 40,000  Level Memphis Center
Sun 07:46:57 PM 35.0714 -89.9739 191° South 408 470 40,000  Level Memphis Center
Sun 07:47:56 PM 34.9567 -89.9922 187° South 413 475 40,000  Level Memphis Center
Sun 07:48:57 PM 34.8419 -90.0053 185° South 413 475 40,000  Level Memphis Center
Sun 07:49:57 PM 34.7231 -90.0108 182° South 423 487 40,000  Level Memphis Center
Sun 07:50:57 PM 34.6083 -90.0189 183° South 423 487 40,000  Level Memphis Center
Sun 07:51:57 PM 34.4978 -90.0269 183° South 415 478 40,000  Level Memphis Center
Sun 07:52:57 PM 34.3831 -90.0325 182° South 415 478 40,000  Level Memphis Center
Sun 07:53:57 PM 34.2703 -90.0431 184° South 409 471 40,000  Level Memphis Center
Sun 07:54:56 PM 34.1597 -90.0508 183° South 404 465 40,000  Level Memphis Center
Sun 07:55:57 PM 34.0472 -90.0589 183° South 404 465 40,000  Level Memphis Center
Sun 07:56:57 PM 33.9322 -90.0667 183° South 410 472 40,000  Level Memphis Center
Sun 07:57:57 PM 33.8281 -90.0747 184° South 410 472 40,000  Level Memphis Center
Sun 07:58:56 PM 33.7175 -90.0850 184° South 410 472 40,000  Level Memphis Center
Sun 07:59:57 PM 33.6025 -90.0928 183° South 410 472 40,000  Level Memphis Center
Sun 08:00:57 PM 33.4878 -90.1031 184° South 410 472 40,000  Level Memphis Center
Sun 08:01:57 PM 33.3753 -90.1108 183° South 410 472 40,000  Level Memphis Center
Sun 08:02:57 PM 33.2603 -90.1186 183° South 410 472 40,000 -500 Level Memphis Center
Sun 08:03:57 PM 33.1478 -90.1264 183° South 410 472 39,000 -1,311 Descending Memphis Center
Sun 08:04:56 PM 33.0161 -90.1392 185° South 416 479 37,400 -1,700 Descending Memphis Center
Sun 08:05:57 PM 32.8950 -90.1469 183° South 429 494 35,600 -1,488 Descending Memphis Center
Sun 08:06:57 PM 32.7678 -90.1547 183° South 442 509 34,400 -1,150 Descending Memphis Center
Sun 08:07:57 PM 32.6406 -90.1625 183° South 452 520 33,300 -1,050 Descending Memphis Center
Sun 08:08:57 PM 32.5111 -90.1725 184° South 463 533 32,300 -1,000 Descending Memphis Center
Sun 08:09:57 PM 32.3794 -90.1803 183° South 468 539 31,300 -1,008 Descending Memphis Center
Sun 08:10:56 PM 32.2500 -90.1903 184° South 468 539 30,300 -1,000 Descending Memphis Center
Sun 08:11:57 PM 32.1206 -90.2003 184° South 468 539 29,300 -645 Descending Memphis Center
Sun 08:12:57 PM 31.9975 -90.2078 183° South 462 532 29,000 -413 Descending Memphis Center
Sun 08:14:37 PM 31.8078 -90.2217 184° South 443 510 28,200 -370 Descending Houston Center
Sun 08:15:39 PM 31.6861 -90.2308 184° South 440 506 28,000 -387 Descending Houston Center
Sun 08:16:41 PM 31.5411 -90.2417 184° South 437 503 27,400 -774 Descending Houston Center
Sun 08:17:43 PM 31.4211 -90.2500 183° South 432 497 26,400 -968 Descending Houston Center
Sun 08:18:45 PM 31.3047 -90.2581 183° South 423 487 25,400 -1,065 Descending Houston Center
Sun 08:19:47 PM 31.1919 -90.2503 177° South 407 468 24,200 -1,645 Descending Houston Center
Sun 08:20:49 PM 31.0828 -90.2411 176° South 397 457 22,000 -2,081 Descending Houston Center
Sun 08:21:51 PM 30.9761 -90.2344 177° South 385 443 19,900 -2,296 Descending Houston Center
Sun 08:22:44 PM 30.8653 -90.2275 177° South 369 425 17,600 -2,368 Descending Houston Center
Sun 08:23:45 PM 30.7669 -90.2172 175° South 359 413 15,400 -2,091 Descending Houston Center
Sun 08:24:56 PM 30.6597 -90.2111 177° South 351 404 13,000 -2,087 Descending Houston Center
Sun 08:25:40 PM 30.5847 -90.2053 176° South 334 384 11,400 -1,839 Descending Houston Center
Sun 08:25:58 PM 30.5678 -90.2042 177° South 338 389 11,100 -400 Descending Houston Center
Sun 08:26:40 PM 30.4992 -90.2064 182° South 302 348 11,000 -97 Descending Houston Center
Sun 08:27:00 PM 30.4872 -90.2119 202° Southwest 298 343 11,000  Level Houston Center
Sun 08:27:41 PM 30.4356 -90.2497 212° Southwest 253 291 11,000  Level Houston Center
Sun 08:28:02 PM 30.4261 -90.2583 218° Southwest 265 305 11,000 -1,315 Level Houston Center
Sun 08:28:54 PM 30.3600 -90.3058 212° Southwest 258 297 9,400 -1,646 Descending Houston Center
Sun 08:29:55 PM 30.3008 -90.3492 212° Southwest 257 296 7,900 -1,409 Descending Houston Center
Sun 08:30:49 PM 30.2342 -90.3639 191° South 265 305 6,700 -1,315 Descending Houston Center
Sun 08:31:08 PM 30.2200 -90.3658 187° South 260 299 6,300 -1,377 Descending Houston Center
Sun 08:31:50 PM 30.1658 -90.3761 189° South 247 284 5,300 -1,258 Descending Houston Center
Sun 08:32:10 PM 30.1528 -90.3786 189° South 253 291 5,000 -1,869 Descending Houston Center
Sun 08:32:51 PM 30.1011 -90.3858 187° South 231 266 3,400 -2,032 Descending Houston Center
Sun 08:33:12 PM 30.0889 -90.3894 194° South 244 281 2,900 -1,556 Descending Houston Center
Sun 08:33:45 PM 30.0472 -90.3953 187° South 205 236 2,000 -968 Descending Houston Center
Sun 08:34:14 PM 30.0292 -90.3947 178° South 212 244 1,900 -436 Descending Houston Center
Sun 08:34:40 PM 30.0194 -90.3794 126° Southeast 121 139 1,600 -677 Descending Houston Center
Sun 08:35:16 PM 30.0147 -90.3586 105° East 154 177 1,200 -590 Descending Houston Center
Sun 08:35:41 PM 30.0100 -90.3414 108° East 113 130 1,000 -295 Descending Houston Center
Sun 08:36:17 PM 30.0092 -90.3242 93° East 140 161 900 -500 Descending Houston Center
Sun 08:36:41 PM 30.0028 -90.3056 112° Southeast 117 135 500 -290 Descending Houston Center
Sun 08:37:19 PM 29.9981 -90.2864 106° East 136 157 600 158 Climbing Houston Center

Login

Don't have an account? Register now (free) for customized features, flight alerts, and more!